sensor_id;sensor_type;location;lat;lon;timestamp;P1;durP1;ratioP1;P2;durP2;ratioP2
17595;SDS011;8916;47.086;15.920;2024-03-06T00:01:22;21.60;;;9.60;;
17595;SDS011;8916;47.086;15.920;2024-03-06T00:03:51;28.08;;;10.77;;
17595;SDS011;8916;47.086;15.920;2024-03-06T00:06:22;22.25;;;9.48;;
17595;SDS011;8916;47.086;15.920;2024-03-06T00:08:51;22.75;;;10.15;;
17595;SDS011;8916;47.086;15.920;2024-03-06T00:11:20;23.70;;;10.82;;
17595;SDS011;8916;47.086;15.920;2024-03-06T00:13:49;30.13;;;11.77;;
17595;SDS011;8916;47.086;15.920;2024-03-06T00:16:18;25.80;;;11.50;;
17595;SDS011;8916;47.086;15.920;2024-03-06T00:18:47;30.83;;;12.25;;
17595;SDS011;8916;47.086;15.920;2024-03-06T00:21:16;31.42;;;12.35;;
17595;SDS011;8916;47.086;15.920;2024-03-06T00:23:47;34.67;;;12.93;;
17595;SDS011;8916;47.086;15.920;2024-03-06T00:26:16;28.30;;;12.10;;
17595;SDS011;8916;47.086;15.920;2024-03-06T00:28:45;36.03;;;13.45;;
17595;SDS011;8916;47.086;15.920;2024-03-06T00:31:14;31.98;;;12.55;;
17595;SDS011;8916;47.086;15.920;2024-03-06T00:33:43;31.77;;;12.48;;
17595;SDS011;8916;47.086;15.920;2024-03-06T00:36:12;28.80;;;12.30;;
17595;SDS011;8916;47.086;15.920;2024-03-06T00:38:41;34.88;;;13.43;;
17595;SDS011;8916;47.086;15.920;2024-03-06T00:41:11;29.75;;;12.02;;
17595;SDS011;8916;47.086;15.920;2024-03-06T00:43:40;30.38;;;12.60;;
17595;SDS011;8916;47.086;15.920;2024-03-06T00:46:09;37.75;;;12.82;;
17595;SDS011;8916;47.086;15.920;2024-03-06T00:48:38;30.98;;;12.45;;
17595;SDS011;8916;47.086;15.920;2024-03-06T00:51:08;30.20;;;12.75;;
17595;SDS011;8916;47.086;15.920;2024-03-06T00:53:37;32.13;;;13.07;;
17595;SDS011;8916;47.086;15.920;2024-03-06T00:56:06;31.83;;;13.25;;
17595;SDS011;8916;47.086;15.920;2024-03-06T00:58:37;24.98;;;11.52;;
17595;SDS011;8916;47.086;15.920;2024-03-06T01:01:06;28.08;;;12.00;;
17595;SDS011;8916;47.086;15.920;2024-03-06T01:03:37;30.92;;;12.98;;
17595;SDS011;8916;47.086;15.920;2024-03-06T01:06:06;33.85;;;14.02;;
17595;SDS011;8916;47.086;15.920;2024-03-06T01:08:35;32.20;;;13.43;;
17595;SDS011;8916;47.086;15.920;2024-03-06T01:11:04;28.33;;;13.20;;
17595;SDS011;8916;47.086;15.920;2024-03-06T01:13:34;30.90;;;12.75;;
17595;SDS011;8916;47.086;15.920;2024-03-06T01:16:05;29.23;;;12.90;;
17595;SDS011;8916;47.086;15.920;2024-03-06T01:18:35;31.02;;;12.95;;
17595;SDS011;8916;47.086;15.920;2024-03-06T01:21:04;31.20;;;12.15;;
17595;SDS011;8916;47.086;15.920;2024-03-06T01:23:33;28.25;;;12.27;;
17595;SDS011;8916;47.086;15.920;2024-03-06T01:26:02;31.67;;;12.65;;
17595;SDS011;8916;47.086;15.920;2024-03-06T01:28:31;23.48;;;10.05;;
17595;SDS011;8916;47.086;15.920;2024-03-06T01:31:01;29.00;;;12.68;;
17595;SDS011;8916;47.086;15.920;2024-03-06T01:33:31;24.58;;;11.80;;
17595;SDS011;8916;47.086;15.920;2024-03-06T01:36:00;26.33;;;11.95;;
17595;SDS011;8916;47.086;15.920;2024-03-06T01:38:29;36.22;;;14.27;;
17595;SDS011;8916;47.086;15.920;2024-03-06T01:40:58;31.08;;;12.25;;
17595;SDS011;8916;47.086;15.920;2024-03-06T01:43:28;35.00;;;13.77;;
17595;SDS011;8916;47.086;15.920;2024-03-06T01:45:57;35.28;;;13.60;;
17595;SDS011;8916;47.086;15.920;2024-03-06T01:48:28;32.28;;;12.23;;
17595;SDS011;8916;47.086;15.920;2024-03-06T01:51:01;33.22;;;13.30;;
17595;SDS011;8916;47.086;15.920;2024-03-06T01:53:32;32.05;;;13.48;;
17595;SDS011;8916;47.086;15.920;2024-03-06T01:56:03;34.05;;;13.02;;
17595;SDS011;8916;47.086;15.920;2024-03-06T01:58:33;32.50;;;13.68;;
17595;SDS011;8916;47.086;15.920;2024-03-06T02:01:02;34.88;;;13.77;;
17595;SDS011;8916;47.086;15.920;2024-03-06T02:03:32;29.90;;;12.93;;
17595;SDS011;8916;47.086;15.920;2024-03-06T02:06:03;33.10;;;12.80;;
17595;SDS011;8916;47.086;15.920;2024-03-06T02:08:34;29.45;;;13.52;;
17595;SDS011;8916;47.086;15.920;2024-03-06T02:11:04;34.50;;;13.55;;
17595;SDS011;8916;47.086;15.920;2024-03-06T02:13:34;40.72;;;14.85;;
17595;SDS011;8916;47.086;15.920;2024-03-06T02:16:03;26.00;;;12.80;;
17595;SDS011;8916;47.086;15.920;2024-03-06T02:18:33;34.20;;;13.77;;
17595;SDS011;8916;47.086;15.920;2024-03-06T02:21:04;37.25;;;14.10;;
17595;SDS011;8916;47.086;15.920;2024-03-06T02:23:34;39.58;;;13.15;;
17595;SDS011;8916;47.086;15.920;2024-03-06T02:26:03;32.63;;;13.13;;
17595;SDS011;8916;47.086;15.920;2024-03-06T02:28:34;32.15;;;13.73;;
17595;SDS011;8916;47.086;15.920;2024-03-06T02:31:03;28.58;;;12.95;;
17595;SDS011;8916;47.086;15.920;2024-03-06T02:33:34;27.77;;;11.98;;
17595;SDS011;8916;47.086;15.920;2024-03-06T02:36:04;28.65;;;11.77;;
17595;SDS011;8916;47.086;15.920;2024-03-06T02:38:34;27.45;;;12.43;;
17595;SDS011;8916;47.086;15.920;2024-03-06T02:41:03;30.13;;;11.77;;
17595;SDS011;8916;47.086;15.920;2024-03-06T02:43:34;31.52;;;11.98;;
17595;SDS011;8916;47.086;15.920;2024-03-06T02:46:03;24.08;;;11.10;;
17595;SDS011;8916;47.086;15.920;2024-03-06T02:48:32;24.65;;;11.13;;
17595;SDS011;8916;47.086;15.920;2024-03-06T02:51:01;27.48;;;12.32;;
17595;SDS011;8916;47.086;15.920;2024-03-06T02:53:32;24.98;;;10.63;;
17595;SDS011;8916;47.086;15.920;2024-03-06T02:56:01;29.85;;;12.15;;
17595;SDS011;8916;47.086;15.920;2024-03-06T02:58:30;32.40;;;11.48;;
17595;SDS011;8916;47.086;15.920;2024-03-06T03:00:59;34.28;;;11.93;;
17595;SDS011;8916;47.086;15.920;2024-03-06T03:03:29;27.45;;;12.55;;
17595;SDS011;8916;47.086;15.920;2024-03-06T03:05:58;24.73;;;11.48;;
17595;SDS011;8916;47.086;15.920;2024-03-06T03:08:27;28.73;;;11.40;;
17595;SDS011;8916;47.086;15.920;2024-03-06T03:10:58;27.42;;;11.68;;
17595;SDS011;8916;47.086;15.920;2024-03-06T03:13:27;28.42;;;12.25;;
17595;SDS011;8916;47.086;15.920;2024-03-06T03:15:57;25.83;;;11.82;;
17595;SDS011;8916;47.086;15.920;2024-03-06T03:18:26;29.98;;;12.32;;
17595;SDS011;8916;47.086;15.920;2024-03-06T03:20:55;26.17;;;11.95;;
17595;SDS011;8916;47.086;15.920;2024-03-06T03:23:24;29.80;;;12.55;;
17595;SDS011;8916;47.086;15.920;2024-03-06T03:25:53;26.65;;;12.82;;
17595;SDS011;8916;47.086;15.920;2024-03-06T03:28:24;26.92;;;11.73;;
17595;SDS011;8916;47.086;15.920;2024-03-06T03:30:53;31.38;;;13.75;;
17595;SDS011;8916;47.086;15.920;2024-03-06T03:33:21;30.58;;;12.52;;
17595;SDS011;8916;47.086;15.920;2024-03-06T03:35:50;32.10;;;13.18;;
17595;SDS011;8916;47.086;15.920;2024-03-06T03:38:19;32.78;;;13.52;;
17595;SDS011;8916;47.086;15.920;2024-03-06T03:40:48;37.58;;;13.55;;
17595;SDS011;8916;47.086;15.920;2024-03-06T03:43:18;36.45;;;13.15;;
17595;SDS011;8916;47.086;15.920;2024-03-06T03:45:49;31.55;;;13.15;;
17595;SDS011;8916;47.086;15.920;2024-03-06T03:48:18;33.83;;;13.32;;
17595;SDS011;8916;47.086;15.920;2024-03-06T03:50:47;31.65;;;13.23;;
17595;SDS011;8916;47.086;15.920;2024-03-06T03:53:16;29.20;;;13.27;;
17595;SDS011;8916;47.086;15.920;2024-03-06T03:55:45;28.25;;;12.25;;
17595;SDS011;8916;47.086;15.920;2024-03-06T03:58:14;39.08;;;13.23;;
17595;SDS011;8916;47.086;15.920;2024-03-06T04:00:43;30.60;;;13.38;;
17595;SDS011;8916;47.086;15.920;2024-03-06T04:03:14;37.05;;;13.93;;
17595;SDS011;8916;47.086;15.920;2024-03-06T04:05:43;25.80;;;12.35;;
17595;SDS011;8916;47.086;15.920;2024-03-06T04:08:12;30.50;;;12.52;;
17595;SDS011;8916;47.086;15.920;2024-03-06T04:10:41;32.40;;;12.95;;
17595;SDS011;8916;47.086;15.920;2024-03-06T04:13:12;31.25;;;13.82;;
17595;SDS011;8916;47.086;15.920;2024-03-06T04:15:44;33.92;;;14.00;;
17595;SDS011;8916;47.086;15.920;2024-03-06T04:18:15;31.02;;;13.10;;
17595;SDS011;8916;47.086;15.920;2024-03-06T04:20:44;32.33;;;14.07;;
17595;SDS011;8916;47.086;15.920;2024-03-06T04:23:13;35.30;;;13.52;;
17595;SDS011;8916;47.086;15.920;2024-03-06T04:25:42;31.02;;;12.27;;
17595;SDS011;8916;47.086;15.920;2024-03-06T04:28:12;25.50;;;12.27;;
17595;SDS011;8916;47.086;15.920;2024-03-06T04:30:41;29.75;;;13.23;;
17595;SDS011;8916;47.086;15.920;2024-03-06T04:33:10;33.70;;;12.82;;
17595;SDS011;8916;47.086;15.920;2024-03-06T04:35:42;29.83;;;12.80;;
17595;SDS011;8916;47.086;15.920;2024-03-06T04:38:11;25.40;;;11.75;;
17595;SDS011;8916;47.086;15.920;2024-03-06T04:40:40;30.23;;;12.90;;
17595;SDS011;8916;47.086;15.920;2024-03-06T04:43:10;26.02;;;11.90;;
17595;SDS011;8916;47.086;15.920;2024-03-06T04:45:39;22.13;;;11.32;;
17595;SDS011;8916;47.086;15.920;2024-03-06T04:48:08;27.60;;;11.52;;
17595;SDS011;8916;47.086;15.920;2024-03-06T04:50:37;26.65;;;12.00;;
17595;SDS011;8916;47.086;15.920;2024-03-06T04:53:08;25.15;;;11.82;;
17595;SDS011;8916;47.086;15.920;2024-03-06T04:55:38;23.27;;;11.35;;
17595;SDS011;8916;47.086;15.920;2024-03-06T04:58:07;34.25;;;11.10;;
17595;SDS011;8916;47.086;15.920;2024-03-06T05:00:37;29.70;;;11.32;;
17595;SDS011;8916;47.086;15.920;2024-03-06T05:03:06;31.23;;;12.27;;
17595;SDS011;8916;47.086;15.920;2024-03-06T05:05:53;25.85;;;11.65;;
17595;SDS011;8916;47.086;15.920;2024-03-06T05:08:41;25.15;;;11.13;;
17595;SDS011;8916;47.086;15.920;2024-03-06T05:14:14;30.50;;;12.32;;
17595;SDS011;8916;47.086;15.920;2024-03-06T05:17:00;25.63;;;11.57;;
17595;SDS011;8916;47.086;15.920;2024-03-06T05:19:47;28.27;;;12.48;;
17595;SDS011;8916;47.086;15.920;2024-03-06T05:25:23;29.00;;;12.43;;
17595;SDS011;8916;47.086;15.920;2024-03-06T05:30:56;32.40;;;12.35;;
17595;SDS011;8916;47.086;15.920;2024-03-06T05:33:42;29.02;;;13.27;;
17595;SDS011;8916;47.086;15.920;2024-03-06T05:36:29;35.53;;;13.10;;
17595;SDS011;8916;47.086;15.920;2024-03-06T05:39:16;32.97;;;12.80;;
17595;SDS011;8916;47.086;15.920;2024-03-06T05:42:04;31.43;;;12.43;;
17595;SDS011;8916;47.086;15.920;2024-03-06T05:44:51;30.27;;;12.38;;
17595;SDS011;8916;47.086;15.920;2024-03-06T05:47:39;26.92;;;12.20;;
17595;SDS011;8916;47.086;15.920;2024-03-06T05:50:26;26.17;;;10.88;;
17595;SDS011;8916;47.086;15.920;2024-03-06T05:53:12;27.80;;;12.43;;
17595;SDS011;8916;47.086;15.920;2024-03-06T05:55:59;24.92;;;11.20;;
17595;SDS011;8916;47.086;15.920;2024-03-06T05:58:46;27.42;;;10.88;;
17595;SDS011;8916;47.086;15.920;2024-03-06T06:01:16;23.58;;;10.63;;
17595;SDS011;8916;47.086;15.920;2024-03-06T06:03:47;25.52;;;10.48;;
17595;SDS011;8916;47.086;15.920;2024-03-06T06:06:17;23.00;;;10.18;;
17595;SDS011;8916;47.086;15.920;2024-03-06T06:08:47;26.13;;;11.50;;
17595;SDS011;8916;47.086;15.920;2024-03-06T06:11:16;26.88;;;9.93;;
17595;SDS011;8916;47.086;15.920;2024-03-06T06:13:47;22.85;;;10.15;;
17595;SDS011;8916;47.086;15.920;2024-03-06T06:16:16;23.30;;;10.85;;
17595;SDS011;8916;47.086;15.920;2024-03-06T06:18:45;26.00;;;10.85;;
17595;SDS011;8916;47.086;15.920;2024-03-06T06:21:16;22.90;;;10.52;;
17595;SDS011;8916;47.086;15.920;2024-03-06T06:23:45;21.73;;;10.15;;
17595;SDS011;8916;47.086;15.920;2024-03-06T06:26:14;28.58;;;11.82;;
17595;SDS011;8916;47.086;15.920;2024-03-06T06:28:43;26.10;;;11.23;;
17595;SDS011;8916;47.086;15.920;2024-03-06T06:31:15;23.70;;;10.50;;
17595;SDS011;8916;47.086;15.920;2024-03-06T06:33:44;25.80;;;10.88;;
17595;SDS011;8916;47.086;15.920;2024-03-06T06:36:14;25.23;;;10.77;;
17595;SDS011;8916;47.086;15.920;2024-03-06T06:38:43;23.83;;;10.82;;
17595;SDS011;8916;47.086;15.920;2024-03-06T06:41:13;21.05;;;9.25;;
17595;SDS011;8916;47.086;15.920;2024-03-06T06:43:42;19.90;;;9.98;;
17595;SDS011;8916;47.086;15.920;2024-03-06T06:46:11;20.85;;;9.73;;
17595;SDS011;8916;47.086;15.920;2024-03-06T06:48:42;25.65;;;9.57;;
17595;SDS011;8916;47.086;15.920;2024-03-06T06:51:11;19.98;;;9.00;;
17595;SDS011;8916;47.086;15.920;2024-03-06T06:53:40;20.38;;;9.88;;
17595;SDS011;8916;47.086;15.920;2024-03-06T06:56:10;20.88;;;8.73;;
17595;SDS011;8916;47.086;15.920;2024-03-06T06:58:42;22.13;;;9.05;;
17595;SDS011;8916;47.086;15.920;2024-03-06T07:01:11;20.73;;;10.20;;
17595;SDS011;8916;47.086;15.920;2024-03-06T07:03:45;20.50;;;8.93;;
17595;SDS011;8916;47.086;15.920;2024-03-06T07:06:14;18.23;;;9.43;;
17595;SDS011;8916;47.086;15.920;2024-03-06T07:08:44;25.13;;;9.75;;
17595;SDS011;8916;47.086;15.920;2024-03-06T07:11:16;22.15;;;9.70;;
17595;SDS011;8916;47.086;15.920;2024-03-06T07:13:45;17.92;;;9.48;;
17595;SDS011;8916;47.086;15.920;2024-03-06T07:16:14;20.48;;;10.00;;
17595;SDS011;8916;47.086;15.920;2024-03-06T07:18:45;18.33;;;9.38;;
17595;SDS011;8916;47.086;15.920;2024-03-06T07:21:14;20.48;;;9.27;;
17595;SDS011;8916;47.086;15.920;2024-03-06T07:23:45;19.77;;;9.05;;
17595;SDS011;8916;47.086;15.920;2024-03-06T07:26:14;21.58;;;8.43;;
17595;SDS011;8916;47.086;15.920;2024-03-06T07:28:43;15.10;;;8.27;;
17595;SDS011;8916;47.086;15.920;2024-03-06T07:31:12;20.05;;;9.35;;
17595;SDS011;8916;47.086;15.920;2024-03-06T07:33:41;21.65;;;8.63;;
17595;SDS011;8916;47.086;15.920;2024-03-06T07:36:12;18.60;;;8.50;;
17595;SDS011;8916;47.086;15.920;2024-03-06T07:38:41;19.25;;;7.97;;
17595;SDS011;8916;47.086;15.920;2024-03-06T07:41:11;17.65;;;9.60;;
17595;SDS011;8916;47.086;15.920;2024-03-06T07:43:40;23.60;;;9.50;;
17595;SDS011;8916;47.086;15.920;2024-03-06T07:46:09;15.52;;;8.55;;
17595;SDS011;8916;47.086;15.920;2024-03-06T07:48:41;20.55;;;8.95;;
17595;SDS011;8916;47.086;15.920;2024-03-06T07:51:12;21.13;;;8.63;;
17595;SDS011;8916;47.086;15.920;2024-03-06T07:53:42;19.15;;;8.02;;
17595;SDS011;8916;47.086;15.920;2024-03-06T07:56:11;17.73;;;9.15;;
17595;SDS011;8916;47.086;15.920;2024-03-06T07:58:40;15.90;;;8.50;;
17595;SDS011;8916;47.086;15.920;2024-03-06T08:01:09;16.42;;;8.60;;
17595;SDS011;8916;47.086;15.920;2024-03-06T08:03:38;20.98;;;7.93;;
17595;SDS011;8916;47.086;15.920;2024-03-06T08:06:10;17.00;;;8.07;;
17595;SDS011;8916;47.086;15.920;2024-03-06T08:08:43;14.85;;;7.90;;
17595;SDS011;8916;47.086;15.920;2024-03-06T08:11:12;17.90;;;7.25;;
17595;SDS011;8916;47.086;15.920;2024-03-06T08:13:43;22.33;;;9.20;;
17595;SDS011;8916;47.086;15.920;2024-03-06T08:16:13;15.63;;;6.65;;
17595;SDS011;8916;47.086;15.920;2024-03-06T08:18:42;15.50;;;6.72;;
17595;SDS011;8916;47.086;15.920;2024-03-06T08:21:11;15.57;;;7.35;;
17595;SDS011;8916;47.086;15.920;2024-03-06T08:23:40;17.90;;;7.45;;
17595;SDS011;8916;47.086;15.920;2024-03-06T08:26:12;16.58;;;7.93;;
17595;SDS011;8916;47.086;15.920;2024-03-06T08:28:41;18.38;;;7.38;;
17595;SDS011;8916;47.086;15.920;2024-03-06T08:31:10;16.60;;;7.70;;
17595;SDS011;8916;47.086;15.920;2024-03-06T08:33:39;16.27;;;7.82;;
17595;SDS011;8916;47.086;15.920;2024-03-06T08:36:08;17.98;;;7.45;;
17595;SDS011;8916;47.086;15.920;2024-03-06T08:38:37;17.55;;;8.52;;
17595;SDS011;8916;47.086;15.920;2024-03-06T08:41:08;20.33;;;8.63;;
17595;SDS011;8916;47.086;15.920;2024-03-06T08:43:38;18.45;;;8.38;;
17595;SDS011;8916;47.086;15.920;2024-03-06T08:46:07;16.80;;;8.27;;
17595;SDS011;8916;47.086;15.920;2024-03-06T08:48:36;18.73;;;8.70;;
17595;SDS011;8916;47.086;15.920;2024-03-06T08:51:06;20.23;;;8.98;;
17595;SDS011;8916;47.086;15.920;2024-03-06T08:53:38;13.80;;;7.68;;
17595;SDS011;8916;47.086;15.920;2024-03-06T08:56:07;20.13;;;8.63;;
17595;SDS011;8916;47.086;15.920;2024-03-06T08:58:36;19.35;;;9.00;;
17595;SDS011;8916;47.086;15.920;2024-03-06T09:01:06;19.48;;;8.85;;
17595;SDS011;8916;47.086;15.920;2024-03-06T09:03:36;23.90;;;9.23;;
17595;SDS011;8916;47.086;15.920;2024-03-06T09:06:05;18.70;;;8.98;;
17595;SDS011;8916;47.086;15.920;2024-03-06T09:08:34;21.08;;;9.13;;
17595;SDS011;8916;47.086;15.920;2024-03-06T09:11:03;18.85;;;8.23;;
17595;SDS011;8916;47.086;15.920;2024-03-06T09:13:33;20.55;;;9.63;;
17595;SDS011;8916;47.086;15.920;2024-03-06T09:16:02;19.63;;;9.27;;
17595;SDS011;8916;47.086;15.920;2024-03-06T09:18:32;20.42;;;9.02;;
17595;SDS011;8916;47.086;15.920;2024-03-06T09:21:01;20.75;;;9.77;;
17595;SDS011;8916;47.086;15.920;2024-03-06T09:23:31;20.38;;;8.85;;
17595;SDS011;8916;47.086;15.920;2024-03-06T09:26:00;17.92;;;8.50;;
17595;SDS011;8916;47.086;15.920;2024-03-06T09:28:30;18.80;;;8.63;;
17595;SDS011;8916;47.086;15.920;2024-03-06T09:30:59;20.52;;;9.07;;
17595;SDS011;8916;47.086;15.920;2024-03-06T09:33:28;22.77;;;9.55;;
17595;SDS011;8916;47.086;15.920;2024-03-06T09:35:58;22.33;;;10.80;;
17595;SDS011;8916;47.086;15.920;2024-03-06T09:38:27;19.63;;;9.02;;
17595;SDS011;8916;47.086;15.920;2024-03-06T09:40:57;20.73;;;10.50;;
17595;SDS011;8916;47.086;15.920;2024-03-06T09:43:26;20.73;;;10.73;;
17595;SDS011;8916;47.086;15.920;2024-03-06T09:45:58;25.02;;;11.95;;
17595;SDS011;8916;47.086;15.920;2024-03-06T09:48:29;19.20;;;10.38;;
17595;SDS011;8916;47.086;15.920;2024-03-06T09:51:03;20.02;;;10.90;;
17595;SDS011;8916;47.086;15.920;2024-03-06T09:53:32;23.58;;;10.23;;
17595;SDS011;8916;47.086;15.920;2024-03-06T09:56:02;19.55;;;9.63;;
17595;SDS011;8916;47.086;15.920;2024-03-06T09:58:32;21.80;;;10.57;;
17595;SDS011;8916;47.086;15.920;2024-03-06T10:01:01;22.60;;;9.73;;
17595;SDS011;8916;47.086;15.920;2024-03-06T10:03:34;20.45;;;9.82;;
17595;SDS011;8916;47.086;15.920;2024-03-06T10:06:06;22.27;;;9.77;;
17595;SDS011;8916;47.086;15.920;2024-03-06T10:08:41;21.42;;;10.23;;
17595;SDS011;8916;47.086;15.920;2024-03-06T10:11:11;20.40;;;10.10;;
17595;SDS011;8916;47.086;15.920;2024-03-06T10:13:40;21.40;;;10.10;;
17595;SDS011;8916;47.086;15.920;2024-03-06T10:16:10;19.40;;;9.15;;
17595;SDS011;8916;47.086;15.920;2024-03-06T10:18:41;21.98;;;10.32;;
17595;SDS011;8916;47.086;15.920;2024-03-06T10:21:11;22.17;;;9.20;;
17595;SDS011;8916;47.086;15.920;2024-03-06T10:23:44;17.50;;;8.68;;
17595;SDS011;8916;47.086;15.920;2024-03-06T10:26:15;18.00;;;8.95;;
17595;SDS011;8916;47.086;15.920;2024-03-06T10:28:45;17.15;;;8.77;;
17595;SDS011;8916;47.086;15.920;2024-03-06T10:31:14;21.08;;;10.23;;
17595;SDS011;8916;47.086;15.920;2024-03-06T10:33:54;21.50;;;9.18;;
17595;SDS011;8916;47.086;15.920;2024-03-06T10:36:27;19.50;;;9.55;;
17595;SDS011;8916;47.086;15.920;2024-03-06T10:39:00;23.70;;;11.15;;
17595;SDS011;8916;47.086;15.920;2024-03-06T10:41:30;17.88;;;10.15;;
17595;SDS011;8916;47.086;15.920;2024-03-06T10:44:03;16.35;;;8.70;;
17595;SDS011;8916;47.086;15.920;2024-03-06T10:46:33;19.40;;;8.00;;
17595;SDS011;8916;47.086;15.920;2024-03-06T10:49:04;15.95;;;8.85;;
17595;SDS011;8916;47.086;15.920;2024-03-06T10:51:35;17.10;;;8.90;;
17595;SDS011;8916;47.086;15.920;2024-03-06T10:54:06;17.25;;;8.45;;
17595;SDS011;8916;47.086;15.920;2024-03-06T10:56:38;19.10;;;9.27;;
17595;SDS011;8916;47.086;15.920;2024-03-06T10:59:10;19.65;;;9.77;;
17595;SDS011;8916;47.086;15.920;2024-03-06T11:01:41;21.95;;;9.63;;
17595;SDS011;8916;47.086;15.920;2024-03-06T11:04:12;20.67;;;9.90;;
17595;SDS011;8916;47.086;15.920;2024-03-06T11:06:43;20.52;;;10.70;;
17595;SDS011;8916;47.086;15.920;2024-03-06T11:09:13;19.38;;;9.77;;
17595;SDS011;8916;47.086;15.920;2024-03-06T11:11:49;19.67;;;9.50;;
17595;SDS011;8916;47.086;15.920;2024-03-06T11:14:21;20.88;;;9.45;;
17595;SDS011;8916;47.086;15.920;2024-03-06T11:17:00;24.15;;;9.32;;
17595;SDS011;8916;47.086;15.920;2024-03-06T11:19:32;21.02;;;9.68;;
17595;SDS011;8916;47.086;15.920;2024-03-06T11:28:36;22.90;;;9.68;;
17595;SDS011;8916;47.086;15.920;2024-03-06T11:31:08;23.23;;;10.05;;
17595;SDS011;8916;47.086;15.920;2024-03-06T11:33:39;20.77;;;10.63;;
17595;SDS011;8916;47.086;15.920;2024-03-06T11:36:14;19.67;;;9.52;;
17595;SDS011;8916;47.086;15.920;2024-03-06T11:38:53;21.33;;;10.77;;
17595;SDS011;8916;47.086;15.920;2024-03-06T11:41:26;17.52;;;9.10;;
17595;SDS011;8916;47.086;15.920;2024-03-06T11:43:59;21.67;;;10.40;;
17595;SDS011;8916;47.086;15.920;2024-03-06T11:46:41;21.50;;;11.13;;
17595;SDS011;8916;47.086;15.920;2024-03-06T11:49:14;24.92;;;11.13;;
17595;SDS011;8916;47.086;15.920;2024-03-06T11:51:48;34.40;;;18.10;;
17595;SDS011;8916;47.086;15.920;2024-03-06T11:54:19;38.95;;;20.60;;
17595;SDS011;8916;47.086;15.920;2024-03-06T11:56:51;20.42;;;11.23;;
17595;SDS011;8916;47.086;15.920;2024-03-06T11:59:22;18.73;;;10.13;;
17595;SDS011;8916;47.086;15.920;2024-03-06T12:01:52;19.65;;;10.02;;
17595;SDS011;8916;47.086;15.920;2024-03-06T12:04:23;22.30;;;11.23;;
17595;SDS011;8916;47.086;15.920;2024-03-06T12:06:56;22.65;;;11.40;;
17595;SDS011;8916;47.086;15.920;2024-03-06T12:09:27;20.80;;;10.23;;
17595;SDS011;8916;47.086;15.920;2024-03-06T12:11:56;25.20;;;11.48;;
17595;SDS011;8916;47.086;15.920;2024-03-06T12:14:26;18.52;;;10.35;;
17595;SDS011;8916;47.086;15.920;2024-03-06T12:16:55;20.23;;;10.57;;
17595;SDS011;8916;47.086;15.920;2024-03-06T12:19:25;17.38;;;10.18;;
17595;SDS011;8916;47.086;15.920;2024-03-06T12:21:59;19.17;;;10.43;;
17595;SDS011;8916;47.086;15.920;2024-03-06T12:24:32;18.75;;;10.00;;
17595;SDS011;8916;47.086;15.920;2024-03-06T12:27:02;23.13;;;11.52;;
17595;SDS011;8916;47.086;15.920;2024-03-06T12:29:33;18.25;;;10.00;;
17595;SDS011;8916;47.086;15.920;2024-03-06T12:32:15;24.17;;;11.82;;
17595;SDS011;8916;47.086;15.920;2024-03-06T12:34:56;20.85;;;10.60;;
17595;SDS011;8916;47.086;15.920;2024-03-06T12:37:28;21.38;;;10.25;;
17595;SDS011;8916;47.086;15.920;2024-03-06T12:40:00;18.88;;;10.40;;
17595;SDS011;8916;47.086;15.920;2024-03-06T12:42:31;22.70;;;10.23;;
17595;SDS011;8916;47.086;15.920;2024-03-06T12:45:00;21.70;;;10.70;;
17595;SDS011;8916;47.086;15.920;2024-03-06T12:47:31;17.50;;;10.68;;
17595;SDS011;8916;47.086;15.920;2024-03-06T12:50:00;20.73;;;9.95;;
17595;SDS011;8916;47.086;15.920;2024-03-06T12:52:29;21.92;;;9.90;;
17595;SDS011;8916;47.086;15.920;2024-03-06T12:55:00;18.50;;;9.40;;
17595;SDS011;8916;47.086;15.920;2024-03-06T12:57:29;17.23;;;9.75;;
17595;SDS011;8916;47.086;15.920;2024-03-06T12:59:59;15.98;;;9.68;;
17595;SDS011;8916;47.086;15.920;2024-03-06T13:02:29;16.10;;;8.93;;
17595;SDS011;8916;47.086;15.920;2024-03-06T13:04:58;20.15;;;9.05;;
17595;SDS011;8916;47.086;15.920;2024-03-06T13:07:27;21.10;;;10.98;;
17595;SDS011;8916;47.086;15.920;2024-03-06T13:09:56;16.25;;;9.65;;
17595;SDS011;8916;47.086;15.920;2024-03-06T13:12:31;18.45;;;9.50;;
17595;SDS011;8916;47.086;15.920;2024-03-06T13:15:00;16.65;;;9.20;;
17595;SDS011;8916;47.086;15.920;2024-03-06T13:17:30;17.25;;;9.18;;
17595;SDS011;8916;47.086;15.920;2024-03-06T13:19:59;17.33;;;9.20;;
17595;SDS011;8916;47.086;15.920;2024-03-06T13:22:28;15.40;;;8.32;;
17595;SDS011;8916;47.086;15.920;2024-03-06T13:24:58;14.70;;;7.43;;
17595;SDS011;8916;47.086;15.920;2024-03-06T13:27:27;13.65;;;7.18;;
17595;SDS011;8916;47.086;15.920;2024-03-06T13:29:57;14.57;;;6.90;;
17595;SDS011;8916;47.086;15.920;2024-03-06T13:32:31;13.98;;;7.20;;
17595;SDS011;8916;47.086;15.920;2024-03-06T13:35:01;12.60;;;7.20;;
17595;SDS011;8916;47.086;15.920;2024-03-06T13:37:30;15.20;;;7.25;;
17595;SDS011;8916;47.086;15.920;2024-03-06T13:39:59;14.05;;;7.72;;
17595;SDS011;8916;47.086;15.920;2024-03-06T13:42:33;13.02;;;6.85;;
17595;SDS011;8916;47.086;15.920;2024-03-06T13:45:04;13.73;;;6.95;;
17595;SDS011;8916;47.086;15.920;2024-03-06T13:47:39;14.57;;;7.20;;
17595;SDS011;8916;47.086;15.920;2024-03-06T13:50:09;15.88;;;7.10;;
17595;SDS011;8916;47.086;15.920;2024-03-06T13:52:41;14.95;;;7.35;;
17595;SDS011;8916;47.086;15.920;2024-03-06T13:55:10;15.30;;;7.95;;
17595;SDS011;8916;47.086;15.920;2024-03-06T13:57:39;13.70;;;7.10;;
17595;SDS011;8916;47.086;15.920;2024-03-06T14:00:11;15.20;;;7.38;;
17595;SDS011;8916;47.086;15.920;2024-03-06T14:02:45;12.88;;;6.55;;
17595;SDS011;8916;47.086;15.920;2024-03-06T14:05:15;15.05;;;6.28;;
17595;SDS011;8916;47.086;15.920;2024-03-06T14:07:44;15.18;;;7.15;;
17595;SDS011;8916;47.086;15.920;2024-03-06T14:10:13;10.00;;;6.60;;
17595;SDS011;8916;47.086;15.920;2024-03-06T14:12:44;11.50;;;7.15;;
17595;SDS011;8916;47.086;15.920;2024-03-06T14:15:14;13.82;;;7.32;;
17595;SDS011;8916;47.086;15.920;2024-03-06T14:17:46;10.32;;;6.63;;
17595;SDS011;8916;47.086;15.920;2024-03-06T14:20:15;11.18;;;6.93;;
17595;SDS011;8916;47.086;15.920;2024-03-06T14:22:44;14.50;;;7.72;;
17595;SDS011;8916;47.086;15.920;2024-03-06T14:25:14;12.10;;;7.75;;
17595;SDS011;8916;47.086;15.920;2024-03-06T14:27:45;11.75;;;7.22;;
17595;SDS011;8916;47.086;15.920;2024-03-06T14:30:16;16.10;;;8.35;;
17595;SDS011;8916;47.086;15.920;2024-03-06T14:32:46;13.40;;;6.90;;
17595;SDS011;8916;47.086;15.920;2024-03-06T14:35:16;13.10;;;7.13;;
17595;SDS011;8916;47.086;15.920;2024-03-06T14:37:45;14.38;;;7.80;;
17595;SDS011;8916;47.086;15.920;2024-03-06T14:40:16;16.67;;;7.63;;
17595;SDS011;8916;47.086;15.920;2024-03-06T14:42:45;13.27;;;7.22;;
17595;SDS011;8916;47.086;15.920;2024-03-06T14:45:31;14.40;;;7.88;;
17595;SDS011;8916;47.086;15.920;2024-03-06T14:48:00;12.68;;;6.80;;
17595;SDS011;8916;47.086;15.920;2024-03-06T14:50:29;14.25;;;6.78;;
17595;SDS011;8916;47.086;15.920;2024-03-06T14:53:00;11.48;;;6.28;;
17595;SDS011;8916;47.086;15.920;2024-03-06T14:55:30;14.40;;;6.90;;
17595;SDS011;8916;47.086;15.920;2024-03-06T14:58:11;15.02;;;7.30;;
17595;SDS011;8916;47.086;15.920;2024-03-06T15:00:46;15.23;;;6.68;;
17595;SDS011;8916;47.086;15.920;2024-03-06T15:03:15;11.27;;;6.32;;